createdAt,value
2018-12-18T00:05:24.873Z,102111.49
2018-12-18T00:07:54.979Z,102109.50
2018-12-18T00:10:48.761Z,102109.67
2018-12-18T00:13:18.798Z,102119.53
2018-12-18T00:15:48.793Z,102115.01
2018-12-18T00:18:18.774Z,102120.52
2018-12-18T00:20:48.772Z,102113.67
2018-12-18T00:23:18.729Z,102113.16
2018-12-18T00:25:56.441Z,102122.67
2018-12-18T00:28:26.458Z,102116.69
2018-12-18T00:33:57.510Z,102118.19
2018-12-18T00:36:27.618Z,102124.86
2018-12-18T00:38:57.602Z,102125.17
2018-12-18T00:41:27.678Z,102131.02
2018-12-18T00:43:57.635Z,102131.84
2018-12-18T00:46:27.743Z,102119.69
2018-12-18T00:49:04.279Z,102122.53
2018-12-18T00:51:44.079Z,102124.69
2018-12-18T00:54:14.245Z,102123.18
2018-12-18T00:56:44.160Z,102128.34
2018-12-18T00:59:19.244Z,102124.85
2018-12-18T01:01:54.538Z,102124.85
2018-12-18T01:04:24.615Z,102130.67
2018-12-18T01:06:58.408Z,102131.19
2018-12-18T01:09:28.466Z,102133.20
2018-12-18T01:11:58.554Z,102140.52
2018-12-18T01:14:40.683Z,102135.88
2018-12-18T01:17:13.637Z,102132.86
2018-12-18T01:19:43.686Z,102136.52
2018-12-18T01:22:30.828Z,102147.88
2018-12-18T01:25:02.528Z,102146.55
2018-12-18T01:27:32.574Z,102151.55
2018-12-18T01:30:02.682Z,102152.37
2018-12-18T01:32:32.817Z,102153.22
2018-12-18T01:35:02.911Z,102158.87
2018-12-18T01:37:32.974Z,102163.22
2018-12-18T01:40:04.701Z,102162.22
2018-12-18T01:42:34.675Z,102159.89
2018-12-18T01:45:04.977Z,102146.88
2018-12-18T01:47:36.632Z,102138.53
2018-12-18T01:50:07.983Z,102138.87
2018-12-18T01:52:38.102Z,102139.87
2018-12-18T01:55:08.672Z,102136.20
2018-12-18T01:57:38.738Z,102133.53
2018-12-18T02:00:08.932Z,102141.55
2018-12-18T02:02:38.879Z,102134.36
2018-12-18T02:05:16.045Z,102132.17
2018-12-18T02:07:50.478Z,102134.19
2018-12-18T02:10:20.461Z,102142.85
2018-12-18T02:12:50.506Z,102151.55
2018-12-18T02:15:20.516Z,102157.53
2018-12-18T02:18:00.417Z,102157.71
2018-12-18T02:20:30.587Z,102156.55
2018-12-18T02:23:00.535Z,102162.88
2018-12-18T02:25:37.455Z,102161.55
2018-12-18T02:28:07.608Z,102164.19
2018-12-18T02:30:43.936Z,102167.88
2018-12-18T02:33:17.385Z,102171.03
2018-12-18T02:35:47.570Z,102164.53
2018-12-18T02:38:17.622Z,102172.53
2018-12-18T02:40:47.972Z,102167.50
2018-12-18T02:43:17.935Z,102168.84
2018-12-18T02:45:47.987Z,102178.67
2018-12-18T02:48:18.142Z,102179.48
2018-12-18T02:50:48.112Z,102181.48
2018-12-18T02:53:31.113Z,102186.33
2018-12-18T02:59:01.943Z,102186.16
2018-12-18T03:01:39.220Z,102190.16
2018-12-18T03:04:11.359Z,102187.50
2018-12-18T03:06:43.079Z,102188.14
2018-12-18T03:09:20.063Z,102188.14
2018-12-18T03:11:51.998Z,102195.50
2018-12-18T03:14:22.132Z,102200.50
2018-12-18T03:16:52.151Z,102206.01
2018-12-18T03:22:41.406Z,102205.84
2018-12-18T03:25:13.408Z,102209.20
2018-12-18T03:27:43.638Z,102199.69
2018-12-18T03:30:13.687Z,102196.54
2018-12-18T03:32:49.290Z,102204.55
2018-12-18T03:35:19.524Z,102209.03
2018-12-18T03:37:53.208Z,102202.87
2018-12-18T03:40:23.306Z,102211.70
2018-12-18T03:42:53.336Z,102208.55
2018-12-18T03:45:23.235Z,102207.22
2018-12-18T03:47:53.257Z,102213.55
2018-12-18T03:50:23.556Z,102209.20
2018-12-18T03:52:54.458Z,102201.70
2018-12-18T03:55:24.650Z,102203.52
2018-12-18T03:57:56.773Z,102207.52
2018-12-18T04:00:26.646Z,102198.02
2018-12-18T04:02:56.739Z,102196.84
2018-12-18T04:05:26.798Z,102197.52
2018-12-18T04:07:56.787Z,102197.52
2018-12-18T04:10:26.771Z,102199.51
2018-12-18T04:12:56.843Z,102198.17
2018-12-18T04:15:26.991Z,102197.82
2018-12-18T04:17:56.884Z,102205.48
2018-12-18T04:20:27.022Z,102199.84
2018-12-18T04:22:57.033Z,102203.33
2018-12-18T04:25:27.138Z,102199.84
2018-12-18T04:27:57.137Z,102199.16
2018-12-18T04:30:27.168Z,102193.66
2018-12-18T04:32:57.120Z,102197.02
2018-12-18T04:35:29.123Z,102199.52
2018-12-18T04:37:59.204Z,102193.53
2018-12-18T04:40:29.224Z,102196.37
2018-12-18T04:42:59.295Z,102205.88
2018-12-18T04:45:29.335Z,102212.55
2018-12-18T04:47:59.313Z,102219.87
2018-12-18T04:50:29.338Z,102216.22
2018-12-18T04:52:59.381Z,102221.55
2018-12-18T04:55:29.293Z,102221.90
2018-12-18T04:57:59.282Z,102220.09
2018-12-18T05:00:29.285Z,102221.56
2018-12-18T05:02:59.253Z,102221.25
2018-12-18T05:05:29.260Z,102222.90
2018-12-18T05:07:59.318Z,102222.90
2018-12-18T05:10:29.388Z,102225.56
2018-12-18T05:12:59.351Z,102213.08
2018-12-18T05:15:29.294Z,102212.91
2018-12-18T05:17:59.257Z,102215.27
2018-12-18T05:20:29.274Z,102209.42
2018-12-18T05:22:59.291Z,102212.60
2018-12-18T05:25:29.326Z,102215.23
2018-12-18T05:27:59.298Z,102222.59
2018-12-18T05:30:29.238Z,102222.42
2018-12-18T05:32:59.319Z,102216.09
2018-12-18T05:35:29.303Z,102218.59
2018-12-18T05:37:59.408Z,102221.77
2018-12-18T05:40:29.412Z,102225.27
2018-12-18T05:42:59.399Z,102227.28
2018-12-18T05:45:29.445Z,102231.12
2018-12-18T05:47:59.463Z,102222.94
2018-12-18T05:50:29.374Z,102228.62
2018-12-18T05:52:59.349Z,102228.80
2018-12-18T05:55:29.269Z,102229.95
2018-12-18T05:57:59.354Z,102232.63
2018-12-18T06:00:29.298Z,102235.77
2018-12-18T06:02:59.383Z,102234.61
2018-12-18T06:05:29.258Z,102231.94
2018-12-18T06:07:59.286Z,102230.61
2018-12-18T06:10:29.270Z,102233.63
2018-12-18T06:12:59.248Z,102234.95
2018-12-18T06:15:29.374Z,102239.30
2018-12-18T06:17:59.214Z,102240.13
2018-12-18T06:20:29.178Z,102243.64
2018-12-18T06:22:59.169Z,102237.14
2018-12-18T06:25:29.176Z,102231.46
2018-12-18T06:27:59.143Z,102241.97
2018-12-18T06:30:29.162Z,102235.12
2018-12-18T06:32:59.077Z,102232.63
2018-12-18T06:35:29.067Z,102243.95
2018-12-18T06:37:59.118Z,102239.98
2018-12-18T06:40:29.095Z,102237.45
2018-12-18T06:42:59.073Z,102235.98
2018-12-18T06:45:28.929Z,102236.46
2018-12-18T06:47:59.038Z,102232.97
2018-12-18T06:50:28.956Z,102240.97
2018-12-18T06:52:58.937Z,102246.66
2018-12-18T06:55:28.900Z,102243.47
2018-12-18T06:57:58.868Z,102239.30
2018-12-18T07:00:28.893Z,102238.30
2018-12-18T07:02:58.904Z,102237.14
2018-12-18T07:05:28.750Z,102244.30
2018-12-18T07:07:58.756Z,102241.32
2018-12-18T07:10:28.730Z,102245.97
2018-12-18T07:12:58.838Z,102245.33
2018-12-18T07:15:28.850Z,102245.32
2018-12-18T07:17:58.949Z,102251.83
2018-12-18T07:20:28.924Z,102256.99
2018-12-18T07:22:58.896Z,102256.99
2018-12-18T07:25:29.039Z,102255.32
2018-12-18T07:27:59.034Z,102258.16
2018-12-18T07:30:29.234Z,102256.65
2018-12-18T07:32:59.335Z,102264.48
2018-12-18T07:35:29.691Z,102257.16
2018-12-18T07:37:59.667Z,102259.97
2018-12-18T07:40:29.777Z,102264.66
2018-12-18T07:42:59.730Z,102262.67
2018-12-18T07:45:29.795Z,102264.48
2018-12-18T07:47:59.969Z,102257.00
2018-12-18T07:50:31.534Z,102259.16
2018-12-18T07:53:01.778Z,102266.51
2018-12-18T07:55:31.930Z,102264.66
2018-12-18T07:58:02.351Z,102272.16
2018-12-18T08:00:34.426Z,102277.36
2018-12-18T08:03:04.677Z,102276.16
2018-12-18T08:05:35.281Z,102278.01
2018-12-18T08:08:05.479Z,102280.02
2018-12-18T08:10:35.926Z,102273.19
2018-12-18T08:13:06.218Z,102276.02
2018-12-18T08:15:36.470Z,102275.00
2018-12-18T08:18:06.859Z,102276.50
2018-12-18T08:20:37.170Z,102285.03
2018-12-18T08:23:07.359Z,102286.84
2018-12-18T08:25:38.752Z,102283.01
2018-12-18T08:28:08.687Z,102282.02
2018-12-18T08:30:38.689Z,102285.03
2018-12-18T08:33:08.852Z,102289.55
2018-12-18T08:35:40.612Z,102293.05
2018-12-18T08:38:10.717Z,102281.54
2018-12-18T08:40:41.319Z,102285.55
2018-12-18T08:43:11.323Z,102281.03
2018-12-18T08:45:41.167Z,102285.38
2018-12-18T08:48:11.502Z,102283.22
2018-12-18T08:50:43.390Z,102287.40
2018-12-18T08:53:13.713Z,102286.20
2018-12-18T08:55:44.230Z,102283.22
2018-12-18T08:58:15.297Z,102280.72
2018-12-18T09:00:45.567Z,102278.70
2018-12-18T09:03:17.370Z,102278.05
2018-12-18T09:05:47.421Z,102265.35
2018-12-18T09:08:17.798Z,102266.69
2018-12-18T09:10:48.027Z,102274.39
2018-12-18T09:13:18.288Z,102260.21
2018-12-18T09:15:53.455Z,102264.39
2018-12-18T09:18:23.660Z,102261.72
2018-12-18T09:20:53.738Z,102256.06
2018-12-18T09:23:23.903Z,102256.23
2018-12-18T09:25:54.209Z,102256.75
2018-12-18T09:28:24.286Z,102247.70
2018-12-18T09:30:54.214Z,102248.56
2018-12-18T09:33:24.302Z,102255.72
2018-12-18T09:35:54.442Z,102249.05
2018-12-18T09:38:29.542Z,102242.39
2018-12-18T09:41:04.792Z,102238.03
2018-12-18T09:43:40.065Z,102239.70
2018-12-18T09:46:10.130Z,102243.70
2018-12-18T09:48:40.028Z,102239.70
2018-12-18T09:51:09.893Z,102244.36
2018-12-18T09:53:39.770Z,102235.35
2018-12-18T09:56:09.747Z,102230.66
2018-12-18T09:58:39.710Z,102227.34
2018-12-18T10:01:09.912Z,102221.30
2018-12-18T10:03:39.786Z,102223.98
2018-12-18T10:06:09.637Z,102210.31
2018-12-18T10:08:39.647Z,102219.28
2018-12-18T10:11:09.618Z,102219.28
2018-12-18T10:13:39.752Z,102223.98
2018-12-18T10:16:09.704Z,102218.95
2018-12-18T10:18:40.748Z,102225.97
2018-12-18T10:21:12.578Z,102218.46
2018-12-18T10:23:42.669Z,102211.28
2018-12-18T10:26:12.818Z,102206.94
2018-12-18T10:28:43.111Z,102202.25
2018-12-18T10:31:12.999Z,102202.92
2018-12-18T10:33:42.995Z,102210.61
2018-12-18T10:36:12.878Z,102210.28
2018-12-18T10:38:42.966Z,102207.94
2018-12-18T10:41:13.055Z,102206.76
2018-12-18T10:43:43.068Z,102205.92
2018-12-18T10:46:13.190Z,102200.92
2018-12-18T10:48:43.047Z,102199.43
2018-12-18T10:51:13.109Z,102196.58
2018-12-18T10:53:43.309Z,102198.91
2018-12-18T10:56:13.202Z,102197.74
2018-12-18T10:58:43.247Z,102190.05
2018-12-18T11:01:16.510Z,102179.55
2018-12-18T11:03:46.538Z,102187.23
2018-12-18T11:06:16.780Z,102182.37
2018-12-18T11:08:46.949Z,102182.87
2018-12-18T11:11:17.027Z,102170.52
2018-12-18T11:13:46.946Z,102174.84
2018-12-18T11:16:17.022Z,102172.19
2018-12-18T11:18:46.991Z,102163.67
2018-12-18T11:21:17.643Z,102160.82
2018-12-18T11:23:47.829Z,102160.17
2018-12-18T11:26:17.863Z,102158.02
2018-12-18T11:28:48.831Z,102149.31
2018-12-18T11:31:18.889Z,102147.34
2018-12-18T11:33:48.995Z,102150.84
2018-12-18T11:36:19.109Z,102148.52
2018-12-18T11:38:48.957Z,102136.50
2018-12-18T11:41:19.067Z,102135.80
2018-12-18T11:43:49.048Z,102134.45
2018-12-18T11:46:19.255Z,102135.96
2018-12-18T11:48:49.211Z,102134.77
2018-12-18T11:51:19.318Z,102129.77
2018-12-18T11:53:49.308Z,102128.78
2018-12-18T11:56:19.429Z,102127.27
2018-12-18T11:58:49.221Z,102122.72
2018-12-18T12:01:20.810Z,102125.72
2018-12-18T12:03:52.543Z,102134.45
2018-12-18T12:06:24.632Z,102132.77
2018-12-18T12:08:55.721Z,102128.08
2018-12-18T12:11:25.841Z,102122.54
2018-12-18T12:13:55.845Z,102114.67
2018-12-18T12:16:25.814Z,102112.82
2018-12-18T12:18:55.791Z,102111.31
2018-12-18T12:21:25.906Z,102102.91
2018-12-18T12:23:55.834Z,102099.41
2018-12-18T12:26:31.248Z,102096.87
2018-12-18T12:29:01.441Z,102093.17
2018-12-18T12:31:31.470Z,102094.48
2018-12-18T12:34:01.562Z,102087.42
2018-12-18T12:36:31.671Z,102091.08
2018-12-18T12:39:01.635Z,102088.98
2018-12-18T12:41:33.132Z,102087.94
2018-12-18T12:44:03.365Z,102078.91
2018-12-18T12:46:33.408Z,102084.56
2018-12-18T12:49:08.857Z,102078.20
2018-12-18T12:51:39.408Z,102070.25
2018-12-18T12:54:09.329Z,102061.55
2018-12-18T12:56:39.302Z,102057.84
2018-12-18T12:59:09.212Z,102053.34
2018-12-18T13:01:42.191Z,102044.79
2018-12-18T13:04:11.256Z,102043.15
2018-12-18T13:06:41.350Z,102032.50
2018-12-18T13:09:11.555Z,102020.94
2018-12-18T13:11:41.561Z,102022.04
2018-12-18T13:14:11.637Z,102023.22
2018-12-18T13:16:41.724Z,102021.70
2018-12-18T13:19:11.691Z,102010.27
2018-12-18T13:21:41.926Z,102019.55
2018-12-18T13:24:11.921Z,102016.48
2018-12-18T13:26:41.897Z,102017.78
2018-12-18T13:29:11.937Z,102005.92
2018-12-18T13:31:41.901Z,102012.52
2018-12-18T13:34:11.900Z,102018.44
2018-12-18T13:36:43.175Z,102018.84
2018-12-18T13:39:13.420Z,102010.05
2018-12-18T13:41:43.359Z,102013.47
2018-12-18T13:44:13.354Z,102019.67
2018-12-18T13:46:43.377Z,102014.54
2018-12-18T13:49:13.539Z,102015.55
2018-12-18T13:51:43.496Z,102006.22
2018-12-18T13:54:13.488Z,102000.60
2018-12-18T13:56:43.551Z,101997.77
2018-12-18T13:59:13.582Z,102009.87
2018-12-18T14:01:43.587Z,102011.75
2018-12-18T14:04:13.542Z,102014.79
2018-12-18T14:06:49.498Z,102007.07
2018-12-18T14:09:15.664Z,102005.12
2018-12-18T14:11:45.743Z,101999.95
2018-12-18T14:14:15.747Z,102000.97
2018-12-18T14:16:45.714Z,102003.86
2018-12-18T14:19:17.277Z,101997.36
2018-12-18T14:21:51.607Z,101985.70
2018-12-18T14:24:21.811Z,101983.89
2018-12-18T14:26:51.835Z,101980.61
2018-12-18T14:29:21.816Z,101985.94
2018-12-18T14:31:51.835Z,101993.33
2018-12-18T14:34:21.864Z,101993.16
2018-12-18T14:36:56.154Z,101992.66
2018-12-18T14:39:24.187Z,101988.17
2018-12-18T14:41:54.299Z,101989.37
2018-12-18T14:44:24.262Z,101992.39
2018-12-18T14:46:54.230Z,101984.05
2018-12-18T14:49:24.085Z,101983.88
2018-12-18T14:51:54.153Z,101989.42
2018-12-18T14:54:24.535Z,101983.08
2018-12-18T14:56:59.832Z,101974.58
2018-12-18T14:59:29.982Z,101971.59
2018-12-18T15:02:00.211Z,101960.09
2018-12-18T15:04:30.019Z,101966.61
2018-12-18T15:07:03.385Z,101972.30
2018-12-18T15:09:33.588Z,101973.61
2018-12-18T15:12:03.695Z,101969.09
2018-12-18T15:14:33.887Z,101961.76
2018-12-18T15:17:03.958Z,101962.44
2018-12-18T15:19:33.891Z,101959.91
2018-12-18T15:22:04.206Z,101961.08
2018-12-18T15:24:34.139Z,101955.41
2018-12-18T15:27:04.130Z,101957.59
2018-12-18T15:29:34.130Z,101951.75
2018-12-18T15:32:04.361Z,101957.89
2018-12-18T15:34:34.356Z,101962.23
2018-12-18T15:37:09.563Z,101966.39
2018-12-18T15:39:36.386Z,101964.89
2018-12-18T15:42:20.694Z,101958.06
2018-12-18T15:44:50.658Z,101949.73
2018-12-18T15:47:22.540Z,101954.41
2018-12-18T15:49:52.470Z,101955.39
2018-12-18T15:52:24.236Z,101954.89
2018-12-18T15:54:55.626Z,101956.22
2018-12-18T15:57:27.098Z,101950.72
2018-12-18T15:59:57.041Z,101950.75
2018-12-18T16:02:27.142Z,101954.75
2018-12-18T16:04:58.108Z,101957.08
2018-12-18T16:07:31.762Z,101960.90
2018-12-18T16:10:01.816Z,101961.71
2018-12-18T16:12:33.549Z,101965.06
2018-12-18T16:15:04.170Z,101975.67
2018-12-18T16:17:35.621Z,101979.67
2018-12-18T16:20:07.488Z,101967.84
2018-12-18T16:22:37.653Z,101963.84
2018-12-18T16:25:07.949Z,101965.18
2018-12-18T16:27:38.044Z,101961.84
2018-12-18T16:30:08.266Z,101955.69
2018-12-18T16:32:38.232Z,101957.31
2018-12-18T16:35:08.196Z,101953.66
2018-12-18T16:37:38.387Z,101954.12
2018-12-18T16:40:08.687Z,101950.30
2018-12-18T16:42:38.765Z,101952.13
2018-12-18T16:45:08.914Z,101944.25
2018-12-18T16:47:41.854Z,101948.06
2018-12-18T16:50:11.806Z,101941.90
2018-12-18T16:52:41.786Z,101935.56
2018-12-18T16:55:11.785Z,101930.38
2018-12-18T16:57:41.729Z,101925.35
2018-12-18T17:00:11.829Z,101937.48
2018-12-18T17:02:42.897Z,101930.14
2018-12-18T17:05:13.153Z,101931.47
2018-12-18T17:07:44.109Z,101931.16
2018-12-18T17:10:15.669Z,101927.15
2018-12-18T17:12:50.971Z,101925.59
2018-12-18T17:15:22.603Z,101927.89
2018-12-18T17:18:00.538Z,101924.44
2018-12-18T17:20:32.213Z,101924.95
2018-12-18T17:23:02.211Z,101926.44
2018-12-18T17:25:32.369Z,101920.96
2018-12-18T17:28:12.912Z,101922.47
2018-12-18T17:30:43.545Z,101927.09
2018-12-18T17:33:13.825Z,101930.78
2018-12-18T17:35:44.600Z,101930.95
2018-12-18T17:38:15.084Z,101937.61
2018-12-18T17:40:45.523Z,101941.11
2018-12-18T17:46:13.018Z,101945.08
2018-12-18T17:48:43.466Z,101949.05
2018-12-18T17:51:13.987Z,101951.64
2018-12-18T17:53:44.196Z,101948.78
2018-12-18T17:56:26.717Z,101952.27
2018-12-18T17:59:14.877Z,101952.11
2018-12-18T18:01:44.937Z,101945.63
2018-12-18T18:04:34.490Z,101941.55
2018-12-18T18:07:04.509Z,101944.44
2018-12-18T18:09:34.490Z,101937.73
2018-12-18T18:12:04.573Z,101938.51
2018-12-18T18:14:52.135Z,101930.38
2018-12-18T18:17:36.783Z,101931.02
2018-12-18T18:20:14.618Z,101926.59
2018-12-18T18:22:44.691Z,101927.45
2018-12-18T18:25:15.083Z,101916.69
2018-12-18T18:27:45.001Z,101916.16
2018-12-18T18:30:15.127Z,101904.96
2018-12-18T18:32:46.359Z,101899.14
2018-12-18T18:35:16.475Z,101889.69
2018-12-18T18:37:49.692Z,101886.34
2018-12-18T18:40:19.529Z,101871.25
2018-12-18T18:42:49.565Z,101868.63
2018-12-18T18:45:19.484Z,101863.41
2018-12-18T18:47:55.340Z,101855.12
2018-12-18T18:50:25.536Z,101861.74
2018-12-18T18:52:55.502Z,101859.09
2018-12-18T18:55:25.462Z,101855.41
2018-12-18T18:57:55.564Z,101852.76
2018-12-18T19:00:25.727Z,101855.77
2018-12-18T19:02:56.025Z,101849.31
2018-12-18T19:05:26.106Z,101849.15
2018-12-18T19:07:56.646Z,101853.45
2018-12-18T19:10:26.845Z,101843.17
2018-12-18T19:13:00.092Z,101836.82
2018-12-18T19:15:31.911Z,101827.34
2018-12-18T19:18:01.878Z,101833.50
2018-12-18T19:20:32.965Z,101826.52
2018-12-18T19:23:02.951Z,101820.52
2018-12-18T19:25:33.273Z,101807.05
2018-12-18T19:28:03.448Z,101793.91
2018-12-18T19:30:33.573Z,101796.22
2018-12-18T19:33:03.621Z,101782.96
2018-12-18T19:35:33.991Z,101780.67
2018-12-18T19:38:04.030Z,101768.05
2018-12-18T19:40:34.225Z,101762.05
2018-12-18T19:43:04.324Z,101767.00
2018-12-18T19:45:35.507Z,101760.19
2018-12-18T19:48:05.693Z,101757.18
2018-12-18T19:50:35.899Z,101757.03
2018-12-18T19:53:05.906Z,101758.36
2018-12-18T19:55:36.953Z,101750.68
2018-12-18T19:58:08.157Z,101742.06
2018-12-18T20:00:38.166Z,101737.73
2018-12-18T20:03:21.071Z,101732.63
2018-12-18T20:05:51.250Z,101721.52
2018-12-18T20:08:31.475Z,101728.83
2018-12-18T20:11:01.927Z,101727.84
2018-12-18T20:13:32.317Z,101729.53
2018-12-18T20:16:02.397Z,101738.94
2018-12-18T20:18:32.481Z,101726.52
2018-12-18T20:21:02.509Z,101717.70
2018-12-18T20:23:32.515Z,101708.77
2018-12-18T20:26:04.757Z,101703.97
2018-12-18T20:28:34.874Z,101705.93
2018-12-18T20:31:04.976Z,101701.58
2018-12-18T20:33:35.947Z,101701.40
2018-12-18T20:36:05.982Z,101693.61
2018-12-18T20:38:35.980Z,101680.13
2018-12-18T20:41:06.082Z,101678.28
2018-12-18T20:43:36.227Z,101670.38
2018-12-18T20:46:06.230Z,101670.69
2018-12-18T20:48:36.084Z,101671.72
2018-12-18T20:51:06.312Z,101664.72
2018-12-18T20:53:37.383Z,101667.83
2018-12-18T20:56:08.360Z,101673.48
2018-12-18T20:58:38.355Z,101670.38
2018-12-18T21:01:09.513Z,101669.87
2018-12-18T21:03:39.638Z,101671.23
2018-12-18T21:06:09.811Z,101667.57
2018-12-18T21:08:42.583Z,101665.44
2018-12-18T21:11:15.903Z,101656.46
2018-12-18T21:13:48.210Z,101651.82
2018-12-18T21:16:18.312Z,101659.63
2018-12-18T21:18:49.436Z,101658.44
2018-12-18T21:21:19.574Z,101654.11
2018-12-18T21:23:49.558Z,101649.95
2018-12-18T21:26:19.654Z,101642.42
2018-12-18T21:28:49.559Z,101641.79
2018-12-18T21:31:19.718Z,101643.77
2018-12-18T21:33:49.661Z,101638.81
2018-12-18T21:36:19.789Z,101631.83
2018-12-18T21:38:51.569Z,101636.16
2018-12-18T21:41:21.564Z,101644.30
2018-12-18T21:43:51.644Z,101637.84
2018-12-18T21:46:21.614Z,101640.83
2018-12-18T21:48:51.890Z,101637.14
2018-12-18T21:51:21.851Z,101638.83
2018-12-18T21:53:51.901Z,101642.16
2018-12-18T21:56:22.322Z,101645.18
2018-12-18T21:58:52.507Z,101657.48
2018-12-18T22:01:22.621Z,101644.52
2018-12-18T22:03:52.697Z,101631.91
2018-12-18T22:06:22.630Z,101629.59
2018-12-18T22:08:52.666Z,101621.30
2018-12-18T22:11:24.269Z,101615.66
2018-12-18T22:13:54.258Z,101615.02
2018-12-18T22:16:24.323Z,101610.23
2018-12-18T22:18:54.422Z,101604.41
2018-12-18T22:21:24.407Z,101600.31
2018-12-18T22:23:54.398Z,101601.81
2018-12-18T22:26:24.346Z,101595.86
2018-12-18T22:28:55.278Z,101592.86
2018-12-18T22:31:25.235Z,101592.36
2018-12-18T22:33:55.488Z,101590.22
2018-12-18T22:36:25.560Z,101582.94
2018-12-18T22:38:56.620Z,101573.46
2018-12-18T22:41:28.984Z,101568.15
2018-12-18T22:43:59.076Z,101568.32
2018-12-18T22:46:29.072Z,101563.00
2018-12-18T22:48:59.120Z,101557.04
2018-12-18T22:51:29.127Z,101543.58
2018-12-18T22:53:59.237Z,101541.77
2018-12-18T22:56:29.273Z,101535.60
2018-12-18T22:58:59.318Z,101526.13
2018-12-18T23:01:34.705Z,101522.14
2018-12-18T23:04:05.028Z,101522.00
2018-12-18T23:06:35.088Z,101519.81
2018-12-18T23:09:09.529Z,101508.53
2018-12-18T23:11:41.610Z,101500.90
2018-12-18T23:14:12.781Z,101494.89
2018-12-18T23:16:44.910Z,101497.22
2018-12-18T23:19:16.113Z,101496.58
2018-12-18T23:21:46.167Z,101496.58
2018-12-18T23:24:16.342Z,101485.95
2018-12-18T23:26:46.409Z,101485.92
2018-12-18T23:29:17.547Z,101484.60
2018-12-18T23:31:47.539Z,101485.59
2018-12-18T23:34:19.559Z,101475.62
2018-12-18T23:36:49.640Z,101468.64
2018-12-18T23:39:19.774Z,101461.53
2018-12-18T23:41:51.712Z,101454.04
2018-12-18T23:44:21.821Z,101458.19
2018-12-18T23:46:51.905Z,101443.41
2018-12-18T23:49:22.023Z,101435.61
2018-12-18T23:51:53.263Z,101434.77
2018-12-18T23:54:23.286Z,101429.45
2018-12-18T23:56:55.249Z,101416.17
2018-12-18T23:59:28.373Z,101408.55
